sensor_id;sensor_type;location;lat;lon;timestamp;pressure;altitude;pressure_sealevel;temperature;humidity
20455;BME280;10386;54.314;10.022;2023-05-20T00:02:27;103148.84;;;8.75;100.00
20455;BME280;10386;54.314;10.022;2023-05-20T00:04:54;103149.78;;;8.74;100.00
20455;BME280;10386;54.314;10.022;2023-05-20T00:07:24;103143.38;;;8.76;100.00
20455;BME280;10386;54.314;10.022;2023-05-20T00:09:51;103144.44;;;8.71;100.00
20455;BME280;10386;54.314;10.022;2023-05-20T00:12:18;103139.09;;;8.68;100.00
20455;BME280;10386;54.314;10.022;2023-05-20T00:14:45;103141.47;;;8.80;100.00
20455;BME280;10386;54.314;10.022;2023-05-20T00:17:11;103140.50;;;8.82;100.00
20455;BME280;10386;54.314;10.022;2023-05-20T00:19:38;103129.66;;;8.82;100.00
20455;BME280;10386;54.314;10.022;2023-05-20T00:22:05;103129.66;;;8.82;100.00
20455;BME280;10386;54.314;10.022;2023-05-20T00:24:32;103131.34;;;8.86;100.00
20455;BME280;10386;54.314;10.022;2023-05-20T00:26:59;103137.94;;;8.76;100.00
20455;BME280;10386;54.314;10.022;2023-05-20T00:29:26;103137.06;;;8.76;100.00
20455;BME280;10386;54.314;10.022;2023-05-20T00:31:53;103139.81;;;8.74;100.00
20455;BME280;10386;54.314;10.022;2023-05-20T00:34:20;103136.94;;;8.80;100.00
20455;BME280;10386;54.314;10.022;2023-05-20T00:36:47;103133.88;;;8.92;100.00
20455;BME280;10386;54.314;10.022;2023-05-20T00:39:14;103133.88;;;8.92;100.00
20455;BME280;10386;54.314;10.022;2023-05-20T00:41:41;103123.41;;;9.11;100.00
20455;BME280;10386;54.314;10.022;2023-05-20T00:44:07;103130.34;;;9.21;100.00
20455;BME280;10386;54.314;10.022;2023-05-20T00:46:34;103123.81;;;9.28;100.00
20455;BME280;10386;54.314;10.022;2023-05-20T00:49:01;103122.63;;;9.38;100.00
20455;BME280;10386;54.314;10.022;2023-05-20T00:51:28;103120.88;;;9.37;100.00
20455;BME280;10386;54.314;10.022;2023-05-20T00:53:56;103122.44;;;9.44;100.00
20455;BME280;10386;54.314;10.022;2023-05-20T00:56:24;103122.28;;;9.19;100.00
20455;BME280;10386;54.314;10.022;2023-05-20T00:58:51;103120.69;;;9.12;100.00
20455;BME280;10386;54.314;10.022;2023-05-20T01:01:18;103116.22;;;9.10;100.00
20455;BME280;10386;54.314;10.022;2023-05-20T01:03:45;103118.00;;;9.11;100.00
20455;BME280;10386;54.314;10.022;2023-05-20T01:06:12;103127.91;;;9.12;100.00
20455;BME280;10386;54.314;10.022;2023-05-20T01:08:39;103113.50;;;9.11;100.00
20455;BME280;10386;54.314;10.022;2023-05-20T01:11:18;103098.69;;;9.52;100.00
20455;BME280;10386;54.314;10.022;2023-05-20T01:13:53;103099.84;;;9.43;100.00
20455;BME280;10386;54.314;10.022;2023-05-20T01:16:22;103103.22;;;9.51;100.00
20455;BME280;10386;54.314;10.022;2023-05-20T01:18:53;103095.16;;;9.50;100.00
20455;BME280;10386;54.314;10.022;2023-05-20T01:21:22;103103.38;;;9.47;100.00
20455;BME280;10386;54.314;10.022;2023-05-20T01:23:48;103106.41;;;9.36;100.00
20455;BME280;10386;54.314;10.022;2023-05-20T01:26:15;103095.19;;;9.48;100.00
20455;BME280;10386;54.314;10.022;2023-05-20T01:28:44;103099.38;;;9.58;100.00
20455;BME280;10386;54.314;10.022;2023-05-20T01:31:18;103089.97;;;9.69;100.00
20455;BME280;10386;54.314;10.022;2023-05-20T01:33:49;103097.81;;;9.78;100.00
20455;BME280;10386;54.314;10.022;2023-05-20T01:36:18;103088.06;;;10.00;100.00
20455;BME280;10386;54.314;10.022;2023-05-20T01:38:49;103085.09;;;9.80;100.00
20455;BME280;10386;54.314;10.022;2023-05-20T01:41:18;103091.44;;;9.81;100.00
20455;BME280;10386;54.314;10.022;2023-05-20T01:43:46;103085.06;;;10.09;100.00
20455;BME280;10386;54.314;10.022;2023-05-20T01:46:14;103076.63;;;9.91;100.00
20455;BME280;10386;54.314;10.022;2023-05-20T01:48:41;103082.91;;;9.91;100.00
20455;BME280;10386;54.314;10.022;2023-05-20T01:51:08;103084.56;;;9.69;100.00
20455;BME280;10386;54.314;10.022;2023-05-20T01:53:35;103077.59;;;9.88;100.00
20455;BME280;10386;54.314;10.022;2023-05-20T01:56:04;103076.41;;;9.97;100.00
20455;BME280;10386;54.314;10.022;2023-05-20T01:58:31;103072.38;;;9.82;100.00
20455;BME280;10386;54.314;10.022;2023-05-20T02:00:58;103071.03;;;9.95;100.00
20455;BME280;10386;54.314;10.022;2023-05-20T02:03:25;103066.31;;;10.02;100.00
20455;BME280;10386;54.314;10.022;2023-05-20T02:05:52;103064.16;;;10.11;100.00
20455;BME280;10386;54.314;10.022;2023-05-20T02:08:19;103068.50;;;9.89;100.00
20455;BME280;10386;54.314;10.022;2023-05-20T02:10:49;103061.47;;;9.84;100.00
20455;BME280;10386;54.314;10.022;2023-05-20T02:13:16;103060.88;;;9.74;100.00
20455;BME280;10386;54.314;10.022;2023-05-20T02:15:43;103061.81;;;9.73;100.00
20455;BME280;10386;54.314;10.022;2023-05-20T02:18:10;103059.44;;;9.90;100.00
20455;BME280;10386;54.314;10.022;2023-05-20T02:20:38;103055.31;;;9.79;100.00
20455;BME280;10386;54.314;10.022;2023-05-20T02:23:05;103058.97;;;9.51;100.00
20455;BME280;10386;54.314;10.022;2023-05-20T02:25:32;103066.78;;;9.31;100.00
20455;BME280;10386;54.314;10.022;2023-05-20T02:27:59;103065.31;;;9.21;100.00
20455;BME280;10386;54.314;10.022;2023-05-20T02:30:26;103076.41;;;9.12;100.00
20455;BME280;10386;54.314;10.022;2023-05-20T02:32:53;103080.41;;;9.00;100.00
20455;BME280;10386;54.314;10.022;2023-05-20T02:35:20;103074.47;;;8.86;100.00
20455;BME280;10386;54.314;10.022;2023-05-20T02:37:46;103075.53;;;8.81;100.00
20455;BME280;10386;54.314;10.022;2023-05-20T02:40:13;103085.63;;;8.76;100.00
20455;BME280;10386;54.314;10.022;2023-05-20T02:42:40;103088.50;;;8.70;100.00
20455;BME280;10386;54.314;10.022;2023-05-20T02:45:07;103095.78;;;8.68;100.00
20455;BME280;10386;54.314;10.022;2023-05-20T02:47:34;103095.88;;;8.63;100.00
20455;BME280;10386;54.314;10.022;2023-05-20T02:50:01;103098.25;;;8.75;100.00
20455;BME280;10386;54.314;10.022;2023-05-20T02:52:28;103093.66;;;8.79;100.00
20455;BME280;10386;54.314;10.022;2023-05-20T02:54:57;103097.34;;;9.07;100.00
20455;BME280;10386;54.314;10.022;2023-05-20T02:57:23;103101.63;;;8.85;100.00
20455;BME280;10386;54.314;10.022;2023-05-20T02:59:51;103090.25;;;9.03;100.00
20455;BME280;10386;54.314;10.022;2023-05-20T03:02:17;103085.19;;;8.91;100.00
20455;BME280;10386;54.314;10.022;2023-05-20T03:04:44;103089.03;;;8.82;100.00
20455;BME280;10386;54.314;10.022;2023-05-20T03:07:13;103085.63;;;9.06;100.00
20455;BME280;10386;54.314;10.022;2023-05-20T03:09:40;103087.06;;;9.19;100.00
20455;BME280;10386;54.314;10.022;2023-05-20T03:12:06;103083.94;;;9.02;100.00
20455;BME280;10386;54.314;10.022;2023-05-20T03:14:33;103084.03;;;8.99;100.00
20455;BME280;10386;54.314;10.022;2023-05-20T03:17:00;103080.59;;;9.23;100.00
20455;BME280;10386;54.314;10.022;2023-05-20T03:19:26;103078.81;;;9.22;100.00
20455;BME280;10386;54.314;10.022;2023-05-20T03:21:53;103076.69;;;9.33;100.00
20455;BME280;10386;54.314;10.022;2023-05-20T03:24:20;103076.16;;;9.50;100.00
20455;BME280;10386;54.314;10.022;2023-05-20T03:26:51;103081.78;;;9.44;100.00
20455;BME280;10386;54.314;10.022;2023-05-20T03:29:18;103079.19;;;9.39;100.00
20455;BME280;10386;54.314;10.022;2023-05-20T03:31:44;103078.91;;;9.48;100.00
20455;BME280;10386;54.314;10.022;2023-05-20T03:34:11;103082.81;;;9.67;100.00
20455;BME280;10386;54.314;10.022;2023-05-20T03:36:38;103080.75;;;9.75;100.00
20455;BME280;10386;54.314;10.022;2023-05-20T03:39:05;103078.31;;;9.93;100.00
20455;BME280;10386;54.314;10.022;2023-05-20T03:41:32;103075.47;;;9.98;100.00
20455;BME280;10386;54.314;10.022;2023-05-20T03:43:59;103071.69;;;10.03;100.00
20455;BME280;10386;54.314;10.022;2023-05-20T03:46:26;103078.78;;;10.07;100.00
20455;BME280;10386;54.314;10.022;2023-05-20T03:48:52;103073.16;;;10.13;100.00
20455;BME280;10386;54.314;10.022;2023-05-20T03:51:19;103078.69;;;10.10;100.00
20455;BME280;10386;54.314;10.022;2023-05-20T03:53:46;103078.22;;;10.24;100.00
20455;BME280;10386;54.314;10.022;2023-05-20T03:56:13;103071.00;;;10.49;100.00
20455;BME280;10386;54.314;10.022;2023-05-20T03:58:40;103074.25;;;10.34;100.00
20455;BME280;10386;54.314;10.022;2023-05-20T04:01:06;103068.03;;;10.56;100.00
20455;BME280;10386;54.314;10.022;2023-05-20T04:03:33;103059.31;;;10.71;100.00
20455;BME280;10386;54.314;10.022;2023-05-20T04:06:00;103050.28;;;10.71;100.00
20455;BME280;10386;54.314;10.022;2023-05-20T04:08:27;103049.63;;;10.89;100.00
20455;BME280;10386;54.314;10.022;2023-05-20T04:10:55;103061.16;;;11.18;100.00
20455;BME280;10386;54.314;10.022;2023-05-20T04:13:24;103059.06;;;11.01;100.00
20455;BME280;10386;54.314;10.022;2023-05-20T04:15:51;103060.56;;;11.33;100.00
20455;BME280;10386;54.314;10.022;2023-05-20T04:18:18;103061.03;;;12.10;100.00
20455;BME280;10386;54.314;10.022;2023-05-20T04:20:45;103060.47;;;12.83;100.00
20455;BME280;10386;54.314;10.022;2023-05-20T04:23:12;103052.69;;;14.06;100.00
20455;BME280;10386;54.314;10.022;2023-05-20T04:25:39;103027.09;;;14.59;100.00
20455;BME280;10386;54.314;10.022;2023-05-20T04:28:10;103029.84;;;14.07;100.00
20455;BME280;10386;54.314;10.022;2023-05-20T04:30:39;103025.28;;;13.35;100.00
20455;BME280;10386;54.314;10.022;2023-05-20T04:33:07;103033.16;;;12.84;100.00
20455;BME280;10386;54.314;10.022;2023-05-20T04:35:34;103036.03;;;12.61;100.00
20455;BME280;10386;54.314;10.022;2023-05-20T04:38:03;103046.09;;;12.39;100.00
20455;BME280;10386;54.314;10.022;2023-05-20T04:40:29;103047.06;;;12.38;100.00
20455;BME280;10386;54.314;10.022;2023-05-20T04:42:59;103042.47;;;12.19;100.00
20455;BME280;10386;54.314;10.022;2023-05-20T04:45:26;103045.25;;;12.18;100.00
20455;BME280;10386;54.314;10.022;2023-05-20T04:47:53;103039.56;;;12.02;100.00
20455;BME280;10386;54.314;10.022;2023-05-20T04:50:19;103041.09;;;11.88;100.00
20455;BME280;10386;54.314;10.022;2023-05-20T04:52:47;103035.44;;;12.14;100.00
20455;BME280;10386;54.314;10.022;2023-05-20T04:55:14;103032.09;;;12.07;100.00
20455;BME280;10386;54.314;10.022;2023-05-20T04:57:41;103028.28;;;12.11;100.00
20455;BME280;10386;54.314;10.022;2023-05-20T05:00:10;103031.22;;;12.07;100.00
20455;BME280;10386;54.314;10.022;2023-05-20T05:02:39;103042.31;;;12.22;100.00
20455;BME280;10386;54.314;10.022;2023-05-20T05:05:07;103042.88;;;12.30;100.00
20455;BME280;10386;54.314;10.022;2023-05-20T05:07:34;103049.22;;;12.31;100.00
20455;BME280;10386;54.314;10.022;2023-05-20T05:10:01;103043.22;;;12.23;100.00
20455;BME280;10386;54.314;10.022;2023-05-20T05:12:28;103049.38;;;12.47;100.00
20455;BME280;10386;54.314;10.022;2023-05-20T05:14:54;103037.34;;;12.53;100.00
20455;BME280;10386;54.314;10.022;2023-05-20T05:17:23;103047.19;;;12.55;100.00
20455;BME280;10386;54.314;10.022;2023-05-20T05:19:50;103040.09;;;12.51;100.00
20455;BME280;10386;54.314;10.022;2023-05-20T05:22:17;103037.34;;;12.53;100.00
20455;BME280;10386;54.314;10.022;2023-05-20T05:24:46;103040.78;;;12.56;100.00
20455;BME280;10386;54.314;10.022;2023-05-20T05:27:12;103038.56;;;12.46;100.00
20455;BME280;10386;54.314;10.022;2023-05-20T05:29:39;103042.97;;;12.48;100.00
20455;BME280;10386;54.314;10.022;2023-05-20T05:32:06;103047.06;;;12.58;100.00
20455;BME280;10386;54.314;10.022;2023-05-20T05:34:33;103051.81;;;12.53;100.00
20455;BME280;10386;54.314;10.022;2023-05-20T05:37:00;103047.00;;;12.60;100.00
20455;BME280;10386;54.314;10.022;2023-05-20T05:39:28;103057.16;;;12.76;100.00
20455;BME280;10386;54.314;10.022;2023-05-20T05:41:56;103040.97;;;12.93;100.00
20455;BME280;10386;54.314;10.022;2023-05-20T05:44:22;103041.19;;;13.07;100.00
20455;BME280;10386;54.314;10.022;2023-05-20T05:46:50;103031.63;;;13.17;100.00
20455;BME280;10386;54.314;10.022;2023-05-20T05:49:18;103029.41;;;12.87;100.00
20455;BME280;10386;54.314;10.022;2023-05-20T05:51:45;103028.03;;;12.97;100.00
20455;BME280;10386;54.314;10.022;2023-05-20T05:54:13;103044.84;;;13.26;100.00
20455;BME280;10386;54.314;10.022;2023-05-20T05:56:40;103039.09;;;13.69;100.00
20455;BME280;10386;54.314;10.022;2023-05-20T05:59:07;103030.16;;;13.66;100.00
20455;BME280;10386;54.314;10.022;2023-05-20T06:01:34;103025.47;;;13.86;100.00
20455;BME280;10386;54.314;10.022;2023-05-20T06:04:03;103026.00;;;13.76;100.00
20455;BME280;10386;54.314;10.022;2023-05-20T06:06:30;103007.59;;;13.62;100.00
20455;BME280;10386;54.314;10.022;2023-05-20T06:08:57;103028.03;;;13.54;100.00
20455;BME280;10386;54.314;10.022;2023-05-20T06:11:26;103037.47;;;13.47;100.00
20455;BME280;10386;54.314;10.022;2023-05-20T06:13:56;103041.22;;;13.44;100.00
20455;BME280;10386;54.314;10.022;2023-05-20T06:16:23;103049.19;;;13.49;100.00
20455;BME280;10386;54.314;10.022;2023-05-20T06:18:50;103061.28;;;13.80;100.00
20455;BME280;10386;54.314;10.022;2023-05-20T06:21:17;103056.38;;;14.05;100.00
20455;BME280;10386;54.314;10.022;2023-05-20T06:23:44;103055.72;;;15.18;100.00
20455;BME280;10386;54.314;10.022;2023-05-20T06:26:11;103023.22;;;17.09;100.00
20455;BME280;10386;54.314;10.022;2023-05-20T06:28:44;102972.34;;;17.86;100.00
20455;BME280;10386;54.314;10.022;2023-05-20T06:31:11;102960.44;;;18.63;100.00
20455;BME280;10386;54.314;10.022;2023-05-20T06:33:38;102964.94;;;18.12;100.00
20455;BME280;10386;54.314;10.022;2023-05-20T06:36:05;102957.25;;;18.69;100.00
20455;BME280;10386;54.314;10.022;2023-05-20T06:38:32;102935.78;;;18.10;100.00
20455;BME280;10386;54.314;10.022;2023-05-20T06:41:01;102937.44;;;19.01;100.00
20455;BME280;10386;54.314;10.022;2023-05-20T06:43:33;102918.16;;;19.96;100.00
20455;BME280;10386;54.314;10.022;2023-05-20T06:46:00;102905.97;;;20.00;100.00
20455;BME280;10386;54.314;10.022;2023-05-20T06:48:26;102901.72;;;19.00;100.00
20455;BME280;10386;54.314;10.022;2023-05-20T06:50:56;102923.66;;;20.09;100.00
20455;BME280;10386;54.314;10.022;2023-05-20T06:53:25;102897.09;;;19.61;100.00
20455;BME280;10386;54.314;10.022;2023-05-20T06:55:53;102896.59;;;18.45;100.00
20455;BME280;10386;54.314;10.022;2023-05-20T06:58:21;102908.34;;;18.97;100.00
20455;BME280;10386;54.314;10.022;2023-05-20T07:00:49;102908.50;;;19.91;100.00
20455;BME280;10386;54.314;10.022;2023-05-20T07:03:16;102875.53;;;19.43;100.00
20455;BME280;10386;54.314;10.022;2023-05-20T07:05:44;102906.59;;;19.57;100.00
20455;BME280;10386;54.314;10.022;2023-05-20T07:08:11;102925.63;;;19.24;100.00
20455;BME280;10386;54.314;10.022;2023-05-20T07:10:38;102937.66;;;19.82;100.00
20455;BME280;10386;54.314;10.022;2023-05-20T07:13:05;102881.31;;;19.27;100.00
20455;BME280;10386;54.314;10.022;2023-05-20T07:15:32;102919.81;;;18.91;100.00
20455;BME280;10386;54.314;10.022;2023-05-20T07:17:59;102933.66;;;18.27;100.00
20455;BME280;10386;54.314;10.022;2023-05-20T07:20:26;102959.75;;;17.27;100.00
20455;BME280;10386;54.314;10.022;2023-05-20T07:22:53;102990.56;;;16.76;100.00
20455;BME280;10386;54.314;10.022;2023-05-20T07:25:21;102999.31;;;16.24;100.00
20455;BME280;10386;54.314;10.022;2023-05-20T07:27:48;103013.41;;;16.18;100.00
20455;BME280;10386;54.314;10.022;2023-05-20T07:30:15;103017.13;;;15.86;100.00
20455;BME280;10386;54.314;10.022;2023-05-20T07:32:42;103019.19;;;15.67;100.00
20455;BME280;10386;54.314;10.022;2023-05-20T07:35:09;103031.13;;;15.82;100.00
20455;BME280;10386;54.314;10.022;2023-05-20T07:37:36;103020.31;;;15.94;100.00
20455;BME280;10386;54.314;10.022;2023-05-20T07:40:03;103016.25;;;16.46;100.00
20455;BME280;10386;54.314;10.022;2023-05-20T07:42:31;103018.78;;;16.35;100.00
20455;BME280;10386;54.314;10.022;2023-05-20T07:44:58;102999.84;;;16.15;100.00
20455;BME280;10386;54.314;10.022;2023-05-20T07:47:25;103007.81;;;16.35;100.00
20455;BME280;10386;54.314;10.022;2023-05-20T07:49:52;103012.19;;;16.38;100.00
20455;BME280;10386;54.314;10.022;2023-05-20T07:52:19;103006.56;;;16.55;100.00
20455;BME280;10386;54.314;10.022;2023-05-20T07:54:45;103002.19;;;16.66;100.00
20455;BME280;10386;54.314;10.022;2023-05-20T07:57:12;103001.97;;;16.55;100.00
20455;BME280;10386;54.314;10.022;2023-05-20T07:59:39;103001.25;;;16.95;100.00
20455;BME280;10386;54.314;10.022;2023-05-20T08:02:07;102995.75;;;16.95;100.00
20455;BME280;10386;54.314;10.022;2023-05-20T08:04:34;102999.66;;;16.91;100.00
20455;BME280;10386;54.314;10.022;2023-05-20T08:07:01;102994.81;;;17.10;100.00
20455;BME280;10386;54.314;10.022;2023-05-20T08:09:30;102987.34;;;17.26;100.00
20455;BME280;10386;54.314;10.022;2023-05-20T08:11:57;102947.34;;;17.08;100.00
20455;BME280;10386;54.314;10.022;2023-05-20T08:14:23;102951.38;;;16.88;100.00
20455;BME280;10386;54.314;10.022;2023-05-20T08:16:50;102938.72;;;16.72;100.00
20455;BME280;10386;54.314;10.022;2023-05-20T08:19:20;102950.78;;;16.83;100.00
20455;BME280;10386;54.314;10.022;2023-05-20T08:32:26;102930.38;;;17.01;100.00
20455;BME280;10386;54.314;10.022;2023-05-20T08:34:53;102933.41;;;17.25;100.00
20455;BME280;10386;54.314;10.022;2023-05-20T08:37:20;102918.69;;;17.26;100.00
20455;BME280;10386;54.314;10.022;2023-05-20T08:39:47;102944.22;;;17.95;100.00
20455;BME280;10386;54.314;10.022;2023-05-20T08:42:20;102916.00;;;17.52;100.00
20455;BME280;10386;54.314;10.022;2023-05-20T08:44:51;102913.19;;;17.40;100.00
20455;BME280;10386;54.314;10.022;2023-05-20T08:47:21;102912.88;;;17.30;100.00
20455;BME280;10386;54.314;10.022;2023-05-20T08:49:48;102918.56;;;17.41;100.00
20455;BME280;10386;54.314;10.022;2023-05-20T08:52:17;102923.94;;;17.57;100.00
20455;BME280;10386;54.314;10.022;2023-05-20T08:54:48;102901.66;;;17.61;100.00
20455;BME280;10386;54.314;10.022;2023-05-20T08:57:15;102897.44;;;17.56;100.00
20455;BME280;10386;54.314;10.022;2023-05-20T08:59:44;102912.41;;;17.38;100.00
20455;BME280;10386;54.314;10.022;2023-05-20T09:02:11;102885.34;;;17.32;100.00
20455;BME280;10386;54.314;10.022;2023-05-20T09:04:39;102893.44;;;17.07;100.00
20455;BME280;10386;54.314;10.022;2023-05-20T09:07:06;102899.72;;;17.09;100.00
20455;BME280;10386;54.314;10.022;2023-05-20T09:09:33;102887.66;;;16.97;100.00
20455;BME280;10386;54.314;10.022;2023-05-20T09:12:01;102900.34;;;17.26;100.00
20455;BME280;10386;54.314;10.022;2023-05-20T09:14:30;102890.44;;;17.24;100.00
20455;BME280;10386;54.314;10.022;2023-05-20T09:17:04;102905.47;;;17.59;100.00
20455;BME280;10386;54.314;10.022;2023-05-20T09:19:32;102898.91;;;17.61;100.00
20455;BME280;10386;54.314;10.022;2023-05-20T09:22:02;102889.88;;;17.86;100.00
20455;BME280;10386;54.314;10.022;2023-05-20T09:24:35;102876.88;;;17.49;100.00
20455;BME280;10386;54.314;10.022;2023-05-20T09:27:02;102901.81;;;17.85;100.00
20455;BME280;10386;54.314;10.022;2023-05-20T09:29:34;102880.47;;;18.14;100.00
20455;BME280;10386;54.314;10.022;2023-05-20T09:32:04;102852.81;;;18.30;100.00
20455;BME280;10386;54.314;10.022;2023-05-20T09:34:32;102861.00;;;18.17;100.00
20455;BME280;10386;54.314;10.022;2023-05-20T09:37:00;102845.81;;;18.12;100.00
20455;BME280;10386;54.314;10.022;2023-05-20T09:39:29;102850.38;;;18.50;100.00
20455;BME280;10386;54.314;10.022;2023-05-20T09:42:04;102834.84;;;18.62;100.00
20455;BME280;10386;54.314;10.022;2023-05-20T09:44:32;102842.34;;;18.47;100.00
20455;BME280;10386;54.314;10.022;2023-05-20T09:47:00;102806.06;;;17.66;100.00
20455;BME280;10386;54.314;10.022;2023-05-20T09:49:28;102837.63;;;17.47;100.00
20455;BME280;10386;54.314;10.022;2023-05-20T09:51:58;102847.78;;;17.98;100.00
20455;BME280;10386;54.314;10.022;2023-05-20T09:54:27;102829.59;;;17.70;100.00
20455;BME280;10386;54.314;10.022;2023-05-20T09:56:57;102820.03;;;17.37;100.00
20455;BME280;10386;54.314;10.022;2023-05-20T09:59:26;102827.63;;;17.72;100.00
20455;BME280;10386;54.314;10.022;2023-05-20T10:01:53;102812.34;;;17.81;100.00
20455;BME280;10386;54.314;10.022;2023-05-20T10:04:22;102806.63;;;17.84;100.00
20455;BME280;10386;54.314;10.022;2023-05-20T10:07:08;102817.22;;;18.14;100.00
20455;BME280;10386;54.314;10.022;2023-05-20T10:10:02;102787.47;;;17.70;100.00
20455;BME280;10386;54.314;10.022;2023-05-20T10:12:42;102783.00;;;17.81;100.00
20455;BME280;10386;54.314;10.022;2023-05-20T10:20:58;102799.06;;;17.22;100.00
20455;BME280;10386;54.314;10.022;2023-05-20T10:23:29;102818.16;;;16.97;100.00
20455;BME280;10386;54.314;10.022;2023-05-20T10:25:57;102810.56;;;16.74;100.00
20455;BME280;10386;54.314;10.022;2023-05-20T10:28:29;102806.00;;;16.61;100.00
20455;BME280;10386;54.314;10.022;2023-05-20T10:30:57;102806.81;;;16.75;100.00
20455;BME280;10386;54.314;10.022;2023-05-20T10:33:29;102818.59;;;16.63;100.00
20455;BME280;10386;54.314;10.022;2023-05-20T10:35:59;102832.06;;;16.94;100.00
20455;BME280;10386;54.314;10.022;2023-05-20T10:38:26;102813.84;;;17.07;100.00
20455;BME280;10386;54.314;10.022;2023-05-20T10:40:54;102824.13;;;17.03;100.00
20455;BME280;10386;54.314;10.022;2023-05-20T10:43:26;102823.41;;;17.14;100.00
20455;BME280;10386;54.314;10.022;2023-05-20T10:45:55;102806.81;;;17.15;100.00
20455;BME280;10386;54.314;10.022;2023-05-20T10:48:30;102814.34;;;17.26;100.00
20455;BME280;10386;54.314;10.022;2023-05-20T10:50:59;102809.34;;;17.32;100.00
20455;BME280;10386;54.314;10.022;2023-05-20T10:53:37;102804.53;;;17.36;100.00
20455;BME280;10386;54.314;10.022;2023-05-20T10:56:05;102789.91;;;17.09;100.00
20455;BME280;10386;54.314;10.022;2023-05-20T10:58:36;102792.28;;;16.87;100.00
20455;BME280;10386;54.314;10.022;2023-05-20T11:01:04;102805.59;;;17.07;100.00
20455;BME280;10386;54.314;10.022;2023-05-20T11:03:32;102826.16;;;17.00;100.00
20455;BME280;10386;54.314;10.022;2023-05-20T11:06:01;102849.00;;;17.14;100.00
20455;BME280;10386;54.314;10.022;2023-05-20T11:08:29;102827.06;;;17.00;100.00
20455;BME280;10386;54.314;10.022;2023-05-20T11:10:59;102837.75;;;17.05;100.00
20455;BME280;10386;54.314;10.022;2023-05-20T11:13:26;102842.06;;;17.62;100.00
20455;BME280;10386;54.314;10.022;2023-05-20T11:15:54;102815.78;;;17.45;100.00
20455;BME280;10386;54.314;10.022;2023-05-20T11:18:21;102811.25;;;17.18;100.00
20455;BME280;10386;54.314;10.022;2023-05-20T11:20:48;102840.50;;;17.05;100.00
20455;BME280;10386;54.314;10.022;2023-05-20T11:23:15;102835.31;;;17.41;100.00
20455;BME280;10386;54.314;10.022;2023-05-20T11:25:43;102842.88;;;17.23;100.00
20455;BME280;10386;54.314;10.022;2023-05-20T11:28:14;102844.22;;;17.04;100.00
20455;BME280;10386;54.314;10.022;2023-05-20T11:30:42;102838.13;;;16.99;100.00
20455;BME280;10386;54.314;10.022;2023-05-20T11:33:13;102843.81;;;17.10;100.00
20455;BME280;10386;54.314;10.022;2023-05-20T11:35:51;102835.09;;;17.03;100.00
20455;BME280;10386;54.314;10.022;2023-05-20T11:38:19;102846.19;;;17.28;100.00
20455;BME280;10386;54.314;10.022;2023-05-20T11:40:52;102846.03;;;17.58;100.00
20455;BME280;10386;54.314;10.022;2023-05-20T11:43:21;102830.59;;;17.82;100.00
20455;BME280;10386;54.314;10.022;2023-05-20T11:45:53;102817.50;;;17.73;100.00
20455;BME280;10386;54.314;10.022;2023-05-20T11:48:22;102829.25;;;17.62;100.00
20455;BME280;10386;54.314;10.022;2023-05-20T11:50:49;102823.97;;;17.72;100.00
20455;BME280;10386;54.314;10.022;2023-05-20T11:53:20;102831.56;;;17.81;100.00
20455;BME280;10386;54.314;10.022;2023-05-20T11:55:58;102830.09;;;18.02;100.00
20455;BME280;10386;54.314;10.022;2023-05-20T11:58:28;102823.06;;;17.98;100.00
20455;BME280;10386;54.314;10.022;2023-05-20T12:00:55;102822.13;;;17.72;100.00
20455;BME280;10386;54.314;10.022;2023-05-20T12:03:43;102822.84;;;17.49;100.00
20455;BME280;10386;54.314;10.022;2023-05-20T12:06:11;102825.50;;;17.76;100.00
20455;BME280;10386;54.314;10.022;2023-05-20T12:08:38;102805.13;;;17.27;100.00
20455;BME280;10386;54.314;10.022;2023-05-20T12:11:06;102816.13;;;17.27;100.00
20455;BME280;10386;54.314;10.022;2023-05-20T12:13:33;102805.81;;;17.57;100.00
20455;BME280;10386;54.314;10.022;2023-05-20T12:16:02;102782.75;;;17.72;100.00
20455;BME280;10386;54.314;10.022;2023-05-20T12:18:31;102777.72;;;17.78;100.00
20455;BME280;10386;54.314;10.022;2023-05-20T12:20:59;102764.41;;;17.72;100.00
20455;BME280;10386;54.314;10.022;2023-05-20T12:23:27;102765.75;;;17.79;100.00
20455;BME280;10386;54.314;10.022;2023-05-20T12:25:56;102762.97;;;17.54;100.00
20455;BME280;10386;54.314;10.022;2023-05-20T12:28:23;102768.16;;;17.96;100.00
20455;BME280;10386;54.314;10.022;2023-05-20T12:30:50;102778.31;;;17.96;100.00
20455;BME280;10386;54.314;10.022;2023-05-20T12:33:17;102768.53;;;17.53;100.00
20455;BME280;10386;54.314;10.022;2023-05-20T12:35:46;102777.69;;;17.66;100.00
20455;BME280;10386;54.314;10.022;2023-05-20T12:38:13;102771.69;;;18.10;100.00
20455;BME280;10386;54.314;10.022;2023-05-20T12:40:40;102784.88;;;18.18;100.00
20455;BME280;10386;54.314;10.022;2023-05-20T12:43:07;102770.28;;;18.42;100.00
20455;BME280;10386;54.314;10.022;2023-05-20T12:45:34;102756.16;;;18.22;100.00
20455;BME280;10386;54.314;10.022;2023-05-20T12:48:01;102753.34;;;17.99;100.00
20455;BME280;10386;54.314;10.022;2023-05-20T12:50:28;102753.72;;;17.68;100.00
20455;BME280;10386;54.314;10.022;2023-05-20T12:52:55;102778.09;;;17.47;100.00
20455;BME280;10386;54.314;10.022;2023-05-20T12:55:22;102781.53;;;17.63;100.00